Time;durP1;ratioP1;P1;durP2;ratioP2;P2;SDS_P1;SDS_P2;PMS_P1;PMS_P2;Temp;Humidity;BMP_temperature;BMP_pressure;BME280_temperature;BME280_humidity;BME280_pressure;Samples;Min_cycle;Max_cycle;Signal;HPM_P1;HPM_P2
2023/08/30 00:00:58;;;;;;;;;;;15.10;99.90;;;;;;7324232;19;9133;-87
2023/08/30 00:03:27;;;;;;;;;;;15.00;99.90;;;;;;7325309;19;9184;-85
2023/08/30 00:05:56;;;;;;;;;;;15.00;99.90;;;;;;7322449;19;9265;-86
2023/08/30 00:08:25;;;;;;;;;;;15.00;99.90;;;;;;7321265;19;9213;-86
2023/08/30 00:10:58;;;;;;;;;;;14.90;99.90;;;;;;7324757;19;9315;-85
2023/08/30 00:13:27;;;;;;;;;;;14.90;99.90;;;;;;7322382;19;9539;-86
2023/08/30 00:15:56;;;;;;;;;;;14.90;99.90;;;;;;7319938;19;9287;-86
2023/08/30 00:18:25;;;;;;;;;;;14.80;99.90;;;;;;7322391;19;10438;-85
2023/08/30 00:20:56;;;;;;;;;;;14.80;99.90;;;;;;7323271;19;9216;-86
2023/08/30 00:23:25;;;;;;;;;;;14.70;99.90;;;;;;7321580;19;9000;-86
2023/08/30 00:25:57;;;;;;;;;;;14.70;99.90;;;;;;7320983;19;9244;-86
2023/08/30 00:28:26;;;;;;;;;;;14.70;99.90;;;;;;7322971;19;9267;-86
2023/08/30 00:30:58;;;;;;;;;;;14.60;99.90;;;;;;7319591;19;9209;-86
2023/08/30 00:33:27;;;;;;;;;;;14.60;99.90;;;;;;7320468;19;9406;-86
2023/08/30 00:36:00;;;;;;;;;;;14.60;99.90;;;;;;7320404;19;9288;-86
2023/08/30 00:38:30;;;;;;;;;;;14.50;99.90;;;;;;7321999;19;9158;-86
2023/08/30 00:41:01;;;;;;;;;;;14.60;99.90;;;;;;7323670;19;9393;-86
2023/08/30 00:43:30;;;;;;;;;;;14.50;99.90;;;;;;7323366;19;9205;-86
2023/08/30 00:46:00;;;;;;;;;;;14.50;99.90;;;;;;7321019;19;10337;-86
2023/08/30 00:48:29;;;;;;;;;;;14.40;99.90;;;;;;7321020;19;9728;-86
2023/08/30 00:50:58;;;;;;;;;;;14.40;99.90;;;;;;7322656;19;9475;-86
2023/08/30 00:53:28;;;;;;;;;;;14.40;99.90;;;;;;7322018;19;9268;-86
2023/08/30 00:55:57;;;;;;;;;;;14.40;99.90;;;;;;7320568;19;9189;-86
2023/08/30 00:58:29;;;;;;;;;;;14.40;99.90;;;;;;7320821;19;9241;-85
2023/08/30 01:00:59;;;;;;;;;;;14.30;99.90;;;;;;7323194;19;9453;-85
2023/08/30 01:03:48;;;;;;;;;;;14.30;99.90;;;;;;7321353;19;9588;-86
2023/08/30 01:06:37;;;;;;;;;;;14.30;99.90;;;;;;7320324;19;9470;-86
2023/08/30 01:09:08;;;;;;;;;;;14.30;99.90;;;;;;7321199;19;11177;-86
2023/08/30 01:11:46;;;;;;;;;;;14.30;99.90;;;;;;7322187;19;9312;-86
2023/08/30 01:14:24;;;;;;;;;;;14.20;99.90;;;;;;7319926;19;9225;-86
2023/08/30 01:16:53;;;;;;;;;;;14.20;99.90;;;;;;7320842;19;9245;-86
2023/08/30 01:19:41;;;;;;;;;;;14.20;99.90;;;;;;7322551;19;9492;-86
2023/08/30 01:22:20;;;;;;;;;;;14.20;99.90;;;;;;7321921;19;9424;-86
2023/08/30 01:25:05;;;;;;;;;;;14.20;99.90;;;;;;7319446;19;9153;-87
2023/08/30 01:27:39;;;;;;;;;;;14.20;99.90;;;;;;7321053;19;9035;-85
2023/08/30 01:30:13;;;;;;;;;;;14.20;99.90;;;;;;7320619;19;9244;-85
2023/08/30 01:32:45;;;;;;;;;;;14.10;99.90;;;;;;7320247;19;9257;-86
2023/08/30 01:35:19;;;;;;;;;;;14.10;99.90;;;;;;7320488;19;9232;-87
2023/08/30 01:37:49;;;;;;;;;;;14.10;99.90;;;;;;7321045;19;9299;-86
2023/08/30 01:40:21;;;;;;;;;;;14.10;99.90;;;;;;7320650;19;9462;-86
2023/08/30 01:42:54;;;;;;;;;;;14.00;99.90;;;;;;7321211;19;10188;-86
2023/08/30 01:45:25;;;;;;;;;;;14.00;99.90;;;;;;7321361;19;8944;-86
2023/08/30 01:47:55;;;;;;;;;;;14.00;99.90;;;;;;7320085;19;10441;-87
2023/08/30 01:50:24;;;;;;;;;;;14.00;99.90;;;;;;7322890;19;9485;-86
2023/08/30 01:52:56;;;;;;;;;;;14.10;99.90;;;;;;7330854;19;9453;-86
2023/08/30 01:55:25;;;;;;;;;;;14.10;99.90;;;;;;7331287;19;9496;-86
2023/08/30 01:57:57;;;;;;;;;;;14.10;99.90;;;;;;7340611;19;8997;-86
2023/08/30 02:00:27;;;;;;;;;;;14.10;99.90;;;;;;7332029;19;9299;-87
2023/08/30 02:02:56;;;;;;;;;;;14.10;99.90;;;;;;7329393;19;9176;-86
2023/08/30 02:05:25;;;;;;;;;;;14.00;99.90;;;;;;7327195;19;9171;-86
2023/08/30 02:08:00;;;;;;;;;;;14.00;99.90;;;;;;7325195;19;10632;-86
2023/08/30 02:10:38;;;;;;;;;;;13.90;99.90;;;;;;7328457;19;9355;-86
2023/08/30 02:13:12;;;;;;;;;;;13.90;99.90;;;;;;7326931;19;9480;-86
2023/08/30 02:15:45;;;;;;;;;;;13.80;99.90;;;;;;7325939;19;10785;-86
2023/08/30 02:18:14;;;;;;;;;;;13.90;99.90;;;;;;7326991;19;10007;-87
2023/08/30 02:20:43;;;;;;;;;;;13.90;99.90;;;;;;7328717;19;9209;-87
2023/08/30 02:23:12;;;;;;;;;;;13.70;99.90;;;;;;7325360;19;9269;-86
2023/08/30 02:25:42;;;;;;;;;;;13.70;99.90;;;;;;7324395;19;9338;-87
2023/08/30 02:28:13;;;;;;;;;;;13.60;99.90;;;;;;7326959;19;9453;-86
2023/08/30 02:30:42;;;;;;;;;;;13.60;99.90;;;;;;7327881;19;9221;-86
2023/08/30 02:33:11;;;;;;;;;;;13.50;99.90;;;;;;7327517;19;9257;-85
2023/08/30 02:35:40;;;;;;;;;;;13.50;99.90;;;;;;7325311;19;11081;-85
2023/08/30 02:38:09;;;;;;;;;;;13.40;99.90;;;;;;7327260;19;11359;-85
2023/08/30 02:40:38;;;;;;;;;;;13.40;99.90;;;;;;7324985;19;9661;-86
2023/08/30 02:43:13;;;;;;;;;;;13.40;99.90;;;;;;7326885;19;9131;-86
2023/08/30 02:45:42;;;;;;;;;;;13.30;99.90;;;;;;7321470;19;9485;-86
2023/08/30 02:48:11;;;;;;;;;;;13.30;99.90;;;;;;7325340;19;9518;-86
2023/08/30 02:50:40;;;;;;;;;;;13.30;99.90;;;;;;7326407;19;9480;-86
2023/08/30 02:53:09;;;;;;;;;;;13.20;99.90;;;;;;7324091;19;10165;-86
2023/08/30 02:55:40;;;;;;;;;;;13.20;99.90;;;;;;7324297;19;9226;-85
2023/08/30 02:58:09;;;;;;;;;;;13.10;99.90;;;;;;7325787;19;9256;-85
2023/08/30 03:00:42;;;;;;;;;;;13.10;99.90;;;;;;7326263;19;9155;-85
2023/08/30 03:03:11;;;;;;;;;;;12.90;99.90;;;;;;7325626;19;9383;-86
2023/08/30 03:05:40;;;;;;;;;;;12.80;99.90;;;;;;7325210;19;9113;-86
2023/08/30 03:08:09;;;;;;;;;;;12.80;99.90;;;;;;7326214;19;10707;-85
2023/08/30 03:10:38;;;;;;;;;;;12.70;99.90;;;;;;7326587;19;9170;-85
2023/08/30 03:13:07;;;;;;;;;;;12.70;99.90;;;;;;7321760;19;10588;-85
2023/08/30 03:15:36;;;;;;;;;;;12.50;99.90;;;;;;7323507;19;9251;-85
2023/08/30 03:18:08;;;;;;;;;;;12.40;99.90;;;;;;7325395;19;9307;-85
2023/08/30 03:20:37;;;;;;;;;;;12.40;99.90;;;;;;7322228;19;10171;-85
2023/08/30 03:23:06;;;;;;;;;;;12.30;99.90;;;;;;7325070;19;9201;-84
2023/08/30 03:25:35;;;;;;;;;;;12.40;99.90;;;;;;7321794;19;9306;-86
2023/08/30 03:28:04;;;;;;;;;;;12.30;99.90;;;;;;7324451;19;9242;-85
2023/08/30 03:30:33;;;;;;;;;;;12.30;99.90;;;;;;7325135;19;9453;-85
2023/08/30 03:33:02;;;;;;;;;;;12.20;99.90;;;;;;7324249;19;9220;-85
2023/08/30 03:35:36;;;;;;;;;;;12.20;99.90;;;;;;7323862;19;9362;-85
2023/08/30 03:38:05;;;;;;;;;;;12.20;99.90;;;;;;7324598;19;9679;-85
2023/08/30 03:40:35;;;;;;;;;;;12.10;99.90;;;;;;7324956;19;9431;-86
2023/08/30 03:43:04;;;;;;;;;;;12.10;99.90;;;;;;7324553;19;9234;-85
2023/08/30 03:45:37;;;;;;;;;;;12.10;99.90;;;;;;7324111;19;9302;-85
2023/08/30 03:48:07;;;;;;;;;;;12.10;99.90;;;;;;7324224;19;9525;-85
2023/08/30 03:50:39;;;;;;;;;;;12.10;99.90;;;;;;7322824;19;9233;-84
2023/08/30 03:53:08;;;;;;;;;;;12.00;99.90;;;;;;7324784;19;9387;-86
2023/08/30 03:55:37;;;;;;;;;;;12.00;99.90;;;;;;7322678;19;9233;-86
2023/08/30 03:58:06;;;;;;;;;;;12.00;99.90;;;;;;7322277;19;9311;-86
2023/08/30 04:00:38;;;;;;;;;;;12.00;99.90;;;;;;7323544;19;9380;-86
2023/08/30 04:03:08;;;;;;;;;;;11.90;99.90;;;;;;7329446;19;10166;-86
2023/08/30 04:05:40;;;;;;;;;;;11.90;99.90;;;;;;7331650;19;9213;-86
2023/08/30 04:08:10;;;;;;;;;;;11.80;99.90;;;;;;7342683;19;9237;-85
2023/08/30 04:10:41;;;;;;;;;;;11.80;99.90;;;;;;7331038;19;9317;-85
2023/08/30 04:13:11;;;;;;;;;;;11.80;99.90;;;;;;7319803;19;9165;-86
2023/08/30 04:15:41;;;;;;;;;;;11.70;99.90;;;;;;7322734;19;9790;-77
2023/08/30 04:18:10;;;;;;;;;;;11.60;99.90;;;;;;7322355;19;9230;-85
2023/08/30 04:20:47;;;;;;;;;;;11.60;99.90;;;;;;7321914;19;9211;-86
2023/08/30 04:23:17;;;;;;;;;;;11.60;99.90;;;;;;7323338;19;9229;-85
2023/08/30 04:25:47;;;;;;;;;;;11.60;99.90;;;;;;7318161;19;11571;-85
2023/08/30 04:28:16;;;;;;;;;;;11.60;99.90;;;;;;7323494;19;9474;-85
2023/08/30 04:30:45;;;;;;;;;;;11.50;99.90;;;;;;7324017;19;9174;-85
2023/08/30 04:33:14;;;;;;;;;;;11.50;99.90;;;;;;7324100;19;9249;-85
2023/08/30 04:35:46;;;;;;;;;;;11.50;99.90;;;;;;7322334;19;9468;-86
2023/08/30 04:38:15;;;;;;;;;;;11.50;99.90;;;;;;7322859;19;9188;-85
2023/08/30 04:40:44;;;;;;;;;;;11.50;99.90;;;;;;7323350;19;9192;-85
2023/08/30 04:43:13;;;;;;;;;;;11.50;99.90;;;;;;7322436;19;9355;-85
2023/08/30 04:45:42;;;;;;;;;;;11.50;99.90;;;;;;7321687;19;9217;-86
2023/08/30 04:48:11;;;;;;;;;;;11.50;99.90;;;;;;7321426;19;9275;-85
2023/08/30 04:50:45;;;;;;;;;;;11.50;99.90;;;;;;7320760;19;10193;-86
2023/08/30 04:53:34;;;;;;;;;;;11.60;99.90;;;;;;7320750;19;9226;-85
2023/08/30 04:56:12;;;;;;;;;;;11.50;99.90;;;;;;7321964;19;10358;-85
2023/08/30 04:58:41;;;;;;;;;;;11.50;99.90;;;;;;7324012;19;9245;-84
2023/08/30 05:01:12;;;;;;;;;;;11.50;99.90;;;;;;7323145;19;9000;-85
2023/08/30 05:03:42;;;;;;;;;;;11.50;99.90;;;;;;7324637;19;9186;-85
2023/08/30 05:06:16;;;;;;;;;;;11.40;99.90;;;;;;7318875;19;9270;-85
2023/08/30 05:08:45;;;;;;;;;;;11.40;99.90;;;;;;7320166;19;9324;-85
2023/08/30 05:11:14;;;;;;;;;;;11.30;99.90;;;;;;7323010;19;9261;-86
2023/08/30 05:13:43;;;;;;;;;;;11.40;99.90;;;;;;7321689;19;9245;-85
2023/08/30 05:16:12;;;;;;;;;;;11.50;99.90;;;;;;7321328;19;9453;-86
2023/08/30 05:18:41;;;;;;;;;;;11.50;99.90;;;;;;7322392;19;9212;-85
2023/08/30 05:21:10;;;;;;;;;;;11.50;99.90;;;;;;7320274;19;10697;-86
2023/08/30 05:23:41;;;;;;;;;;;11.60;99.90;;;;;;7319590;19;9505;-86
2023/08/30 05:26:12;;;;;;;;;;;11.60;99.90;;;;;;7327853;19;10357;-84
2023/08/30 05:28:41;;;;;;;;;;;11.60;99.90;;;;;;7327948;19;11259;-85
2023/08/30 05:31:10;;;;;;;;;;;11.60;99.90;;;;;;7323242;19;9196;-85
2023/08/30 05:33:39;;;;;;;;;;;11.70;99.90;;;;;;7326270;19;10384;-85
2023/08/30 05:36:08;;;;;;;;;;;11.70;99.90;;;;;;7328615;19;11295;-85
2023/08/30 05:38:37;;;;;;;;;;;11.80;99.90;;;;;;7328375;19;11499;-87
2023/08/30 05:41:08;;;;;;;;;;;11.80;99.90;;;;;;7324932;19;9407;-85
2023/08/30 05:43:37;;;;;;;;;;;11.90;99.90;;;;;;7328648;19;9181;-86
2023/08/30 05:46:12;;;;;;;;;;;12.00;99.90;;;;;;7327999;19;9195;-86
2023/08/30 05:49:02;;;;;;;;;;;12.00;99.90;;;;;;7327225;19;10629;-86
2023/08/30 05:51:31;;;;;;;;;;;12.10;99.90;;;;;;7324156;19;9825;-86
2023/08/30 05:54:00;;;;;;;;;;;12.20;99.90;;;;;;7325749;19;9463;-85
2023/08/30 05:56:32;;;;;;;;;;;12.20;99.90;;;;;;7327418;19;11097;-86
2023/08/30 05:59:01;;;;;;;;;;;12.20;99.90;;;;;;7326837;19;9360;-85
2023/08/30 06:01:30;;;;;;;;;;;12.30;99.90;;;;;;7328068;19;10338;-84
2023/08/30 06:03:59;;;;;;;;;;;12.40;99.90;;;;;;7325775;19;9178;-83
2023/08/30 06:06:29;;;;;;;;;;;12.50;99.90;;;;;;7326517;19;9213;-74
2023/08/30 06:08:58;;;;;;;;;;;12.60;99.90;;;;;;7323133;19;9429;-87
2023/08/30 06:11:27;;;;;;;;;;;12.60;99.90;;;;;;7323328;19;9150;-85
2023/08/30 06:13:59;;;;;;;;;;;12.70;99.90;;;;;;7317177;19;9259;-76
2023/08/30 06:16:28;;;;;;;;;;;12.80;99.90;;;;;;7325921;19;9305;-76
2023/08/30 06:18:58;;;;;;;;;;;12.90;99.90;;;;;;7326679;19;9280;-75
2023/08/30 06:21:47;;;;;;;;;;;13.00;99.90;;;;;;7325511;19;10910;-76
2023/08/30 06:24:16;;;;;;;;;;;13.10;99.90;;;;;;7322432;19;10731;-83
2023/08/30 06:26:45;;;;;;;;;;;13.10;99.90;;;;;;7317955;19;9596;-83
2023/08/30 06:29:17;;;;;;;;;;;13.20;99.90;;;;;;7323141;19;9259;-83
2023/08/30 06:31:46;;;;;;;;;;;13.40;99.90;;;;;;7324710;19;9581;-82
2023/08/30 06:34:16;;;;;;;;;;;13.40;99.90;;;;;;7322518;19;10907;-83
2023/08/30 06:36:45;;;;;;;;;;;13.50;99.90;;;;;;7322595;19;9236;-83
2023/08/30 06:39:14;;;;;;;;;;;13.50;99.90;;;;;;7322578;19;9149;-83
2023/08/30 06:41:43;;;;;;;;;;;13.60;99.90;;;;;;7325003;19;9200;-83
2023/08/30 06:44:12;;;;;;;;;;;13.60;99.90;;;;;;7320882;19;9304;-83
2023/08/30 06:46:43;;;;;;;;;;;13.60;99.90;;;;;;7320853;19;10316;-83
2023/08/30 06:49:12;;;;;;;;;;;13.60;99.90;;;;;;7320959;19;9432;-83
2023/08/30 06:51:43;;;;;;;;;;;13.70;99.90;;;;;;7317899;19;11038;-83
2023/08/30 06:54:12;;;;;;;;;;;13.70;99.90;;;;;;7322733;19;8944;-84
2023/08/30 06:56:44;;;;;;;;;;;13.70;99.90;;;;;;7323625;19;9134;-83
2023/08/30 06:59:13;;;;;;;;;;;13.80;99.90;;;;;;7322482;19;9251;-83
2023/08/30 07:01:44;;;;;;;;;;;13.80;99.90;;;;;;7320044;19;11186;-83
2023/08/30 07:04:14;;;;;;;;;;;13.80;99.90;;;;;;7323073;19;9498;-84
2023/08/30 07:07:03;;;;;;;;;;;13.90;99.90;;;;;;7318224;19;9553;-84
2023/08/30 07:09:33;;;;;;;;;;;14.00;99.90;;;;;;7321974;19;9212;-84
2023/08/30 07:12:02;;;;;;;;;;;14.10;99.90;;;;;;7321239;19;9447;-84
2023/08/30 07:14:31;;;;;;;;;;;14.20;99.90;;;;;;7323698;19;9537;-84
2023/08/30 07:17:03;;;;;;;;;;;14.30;99.90;;;;;;7321740;19;8944;-84
2023/08/30 07:19:32;;;;;;;;;;;14.30;99.90;;;;;;7322698;19;9252;-84
2023/08/30 07:22:01;;;;;;;;;;;14.40;99.90;;;;;;7319954;19;9573;-84
2023/08/30 07:24:30;;;;;;;;;;;14.40;99.90;;;;;;7322285;19;10695;-84
2023/08/30 07:26:59;;;;;;;;;;;14.40;99.90;;;;;;7321630;19;9211;-83
2023/08/30 07:29:28;;;;;;;;;;;14.50;99.90;;;;;;7319832;19;9271;-84
2023/08/30 07:31:57;;;;;;;;;;;14.50;99.90;;;;;;7323377;19;9246;-84
2023/08/30 07:34:29;;;;;;;;;;;14.50;99.90;;;;;;7322429;19;9308;-83
2023/08/30 07:36:58;;;;;;;;;;;14.60;99.90;;;;;;7324054;19;9520;-83
2023/08/30 07:39:27;;;;;;;;;;;14.70;99.90;;;;;;7321852;19;9377;-83
2023/08/30 07:41:56;;;;;;;;;;;14.80;99.90;;;;;;7322968;19;9228;-84
2023/08/30 07:44:45;;;;;;;;;;;14.90;99.90;;;;;;7320973;19;9280;-84
2023/08/30 07:47:14;;;;;;;;;;;14.90;99.90;;;;;;7323675;19;9241;-83
2023/08/30 07:49:46;;;;;;;;;;;14.80;99.90;;;;;;7319062;19;9457;-83
2023/08/30 07:52:15;;;;;;;;;;;14.90;99.90;;;;;;7324135;19;9586;-83
2023/08/30 07:54:44;;;;;;;;;;;14.80;99.90;;;;;;7320723;19;9252;-84
2023/08/30 07:57:15;;;;;;;;;;;14.90;99.90;;;;;;7322696;19;9280;-83
2023/08/30 07:59:44;;;;;;;;;;;14.90;99.90;;;;;;7323069;19;9737;-83
2023/08/30 08:02:13;;;;;;;;;;;15.00;99.90;;;;;;7322081;19;9209;-83
2023/08/30 08:04:42;;;;;;;;;;;15.10;99.90;;;;;;7317687;19;10927;-83
2023/08/30 08:07:14;;;;;;;;;;;15.10;99.90;;;;;;7322530;19;9244;-84
2023/08/30 08:10:03;;;;;;;;;;;15.20;99.90;;;;;;7320979;19;9324;-84
2023/08/30 08:12:32;;;;;;;;;;;15.30;99.90;;;;;;7323507;19;9508;-83
2023/08/30 08:15:01;;;;;;;;;;;15.30;99.90;;;;;;7320580;19;9297;-83
2023/08/30 08:17:31;;;;;;;;;;;15.40;99.90;;;;;;7321433;19;9437;-84
2023/08/30 08:20:00;;;;;;;;;;;15.50;99.90;;;;;;7319900;19;9667;-83
2023/08/30 08:22:31;;;;;;;;;;;15.50;99.90;;;;;;7322731;19;9345;-84
2023/08/30 08:25:00;;;;;;;;;;;15.50;99.90;;;;;;7319449;19;9426;-83
2023/08/30 08:27:30;;;;;;;;;;;15.50;99.90;;;;;;7322437;19;9229;-83
2023/08/30 08:29:59;;;;;;;;;;;15.60;99.90;;;;;;7324182;19;9412;-84
2023/08/30 08:32:28;;;;;;;;;;;15.70;99.90;;;;;;7329464;19;9389;-83
2023/08/30 08:34:57;;;;;;;;;;;15.80;99.90;;;;;;7323046;19;11225;-83
2023/08/30 08:37:26;;;;;;;;;;;15.80;99.90;;;;;;7322372;19;9199;-84
2023/08/30 08:39:57;;;;;;;;;;;15.80;99.90;;;;;;7321621;19;9236;-84
2023/08/30 08:42:26;;;;;;;;;;;15.80;99.90;;;;;;7319733;19;11112;-83
2023/08/30 08:44:59;;;;;;;;;;;15.80;99.90;;;;;;7320191;19;9246;-84
2023/08/30 08:47:29;;;;;;;;;;;15.90;99.90;;;;;;7320658;19;9598;-83
2023/08/30 08:49:58;;;;;;;;;;;16.00;99.90;;;;;;7321413;19;9280;-84
2023/08/30 08:52:28;;;;;;;;;;;16.10;99.90;;;;;;7320525;19;9642;-83
2023/08/30 08:55:02;;;;;;;;;;;16.20;99.90;;;;;;7318047;19;9225;-83
2023/08/30 08:57:33;;;;;;;;;;;16.30;99.90;;;;;;7321377;19;9239;-84
2023/08/30 09:00:02;;;;;;;;;;;16.30;99.90;;;;;;7322670;19;9555;-83
2023/08/30 09:02:32;;;;;;;;;;;16.20;99.90;;;;;;7328654;19;9257;-84
2023/08/30 09:05:04;;;;;;;;;;;16.30;99.90;;;;;;7328867;19;9229;-83
2023/08/30 09:07:35;;;;;;;;;;;16.30;99.90;;;;;;7338866;19;9361;-83
2023/08/30 09:10:07;;;;;;;;;;;16.40;99.90;;;;;;7327242;19;9249;-83
2023/08/30 09:12:37;;;;;;;;;;;16.50;99.90;;;;;;7328067;19;9108;-83
2023/08/30 09:15:07;;;;;;;;;;;16.60;99.90;;;;;;7328361;19;9523;-83
2023/08/30 09:17:42;;;;;;;;;;;16.70;99.90;;;;;;7329135;19;9168;-83
2023/08/30 09:20:13;;;;;;;;;;;16.80;99.90;;;;;;7327952;19;9595;-83
2023/08/30 09:22:43;;;;;;;;;;;16.90;99.90;;;;;;7327260;19;9375;-84
2023/08/30 09:25:27;;;;;;;;;;;17.10;99.90;;;;;;7325793;19;9748;-83
2023/08/30 09:28:01;;;;;;;;;;;17.20;99.90;;;;;;7326819;19;9157;-83
2023/08/30 09:30:31;;;;;;;;;;;17.40;99.90;;;;;;7328366;19;9410;-83
2023/08/30 09:33:05;;;;;;;;;;;17.60;99.90;;;;;;7323337;19;9316;-83
2023/08/30 09:35:34;;;;;;;;;;;17.70;99.90;;;;;;7326216;19;9277;-83
2023/08/30 09:38:03;;;;;;;;;;;17.80;99.90;;;;;;7326994;19;10174;-83
2023/08/30 09:40:34;;;;;;;;;;;18.00;99.90;;;;;;7325261;19;9367;-83
2023/08/30 09:43:03;;;;;;;;;;;18.10;99.90;;;;;;7328737;19;9292;-83
2023/08/30 09:45:33;;;;;;;;;;;18.20;99.90;;;;;;7323973;19;9455;-84
2023/08/30 09:48:04;;;;;;;;;;;18.20;99.90;;;;;;7325497;19;9498;-83
2023/08/30 09:50:57;;;;;;;;;;;18.20;99.90;;;;;;7324892;19;10985;-84
2023/08/30 09:53:28;;;;;;;;;;;18.10;99.90;;;;;;7324811;19;9264;-84
2023/08/30 09:56:01;;;;;;;;;;;18.10;99.90;;;;;;7323330;19;9261;-83
2023/08/30 09:58:51;;;;;;;;;;;18.20;99.90;;;;;;7320085;19;10143;-83
2023/08/30 10:01:20;;;;;;;;;;;18.30;99.90;;;;;;7322056;19;9508;-86
2023/08/30 10:03:50;;;;;;;;;;;18.40;99.90;;;;;;7325508;19;9248;-74
2023/08/30 10:06:23;;;;;;;;;;;18.30;99.90;;;;;;7324220;19;9363;-74
2023/08/30 10:08:56;;;;;;;;;;;18.20;99.90;;;;;;7326131;19;10320;-74
2023/08/30 10:11:29;;;;;;;;;;;18.00;99.90;;;;;;7323573;19;10154;-75
2023/08/30 10:13:58;;;;;;;;;;;18.00;99.90;;;;;;7324450;19;9277;-74
2023/08/30 10:16:32;;;;;;;;;;;18.10;99.90;;;;;;7327197;19;9479;-73
2023/08/30 10:19:07;;;;;;;;;;;18.10;99.90;;;;;;7323968;19;10305;-78
2023/08/30 10:21:38;;;;;;;;;;;18.10;99.90;;;;;;7323735;19;9297;-79
2023/08/30 10:24:13;;;;;;;;;;;18.20;99.90;;;;;;7321711;19;9254;-80
2023/08/30 10:26:48;;;;;;;;;;;18.20;99.90;;;;;;7326926;19;9314;-80
2023/08/30 10:29:20;;;;;;;;;;;18.10;99.90;;;;;;7326278;19;11591;-80
2023/08/30 10:31:50;;;;;;;;;;;18.10;99.90;;;;;;7320983;19;9344;-80
2023/08/30 10:34:21;;;;;;;;;;;18.10;99.90;;;;;;7325500;19;9396;-79
2023/08/30 10:37:01;;;;;;;;;;;18.00;99.90;;;;;;7325817;19;9201;-80
2023/08/30 10:39:38;;;;;;;;;;;17.90;99.90;;;;;;7323751;19;9293;-80
2023/08/30 10:42:15;;;;;;;;;;;18.00;99.90;;;;;;7322179;19;9301;-79
2023/08/30 10:44:51;;;;;;;;;;;17.90;99.90;;;;;;7324843;19;10277;-80
2023/08/30 10:47:25;;;;;;;;;;;17.90;99.90;;;;;;7323995;19;9265;-79
2023/08/30 10:49:57;;;;;;;;;;;17.90;99.90;;;;;;7325964;19;9277;-80
2023/08/30 10:52:58;;;;;;;;;;;17.90;99.90;;;;;;7321073;19;9302;-79
2023/08/30 10:55:27;;;;;;;;;;;18.00;99.90;;;;;;7325020;19;9128;-80
2023/08/30 10:58:06;;;;;;;;;;;17.90;99.90;;;;;;7324167;19;10217;-80
2023/08/30 11:00:37;;;;;;;;;;;18.00;99.90;;;;;;7324912;19;9280;-81
2023/08/30 11:03:06;;;;;;;;;;;18.20;99.90;;;;;;7319834;19;9296;-83
2023/08/30 11:06:01;;;;;;;;;;;18.20;99.90;;;;;;7319964;19;9017;-84
2023/08/30 11:08:32;;;;;;;;;;;18.30;99.90;;;;;;7325085;19;9132;-82
2023/08/30 11:11:07;;;;;;;;;;;18.30;99.90;;;;;;7324258;19;9463;-79
2023/08/30 11:13:39;;;;;;;;;;;18.40;99.90;;;;;;7322739;19;9216;-79
2023/08/30 11:16:08;;;;;;;;;;;18.40;99.90;;;;;;7320084;19;10535;-79
2023/08/30 11:18:42;;;;;;;;;;;18.40;99.90;;;;;;7321947;19;9603;-79
2023/08/30 11:21:12;;;;;;;;;;;18.30;99.90;;;;;;7320147;19;9105;-78
2023/08/30 11:23:41;;;;;;;;;;;18.30;99.90;;;;;;7324171;19;9261;-80
2023/08/30 11:26:12;;;;;;;;;;;18.20;99.90;;;;;;7323374;19;9215;-78
2023/08/30 11:28:48;;;;;;;;;;;18.10;99.90;;;;;;7322279;19;9249;-77
2023/08/30 11:31:22;;;;;;;;;;;18.10;99.90;;;;;;7311787;19;9484;-79
2023/08/30 11:33:55;;;;;;;;;;;18.10;99.90;;;;;;7319939;19;12350;-79
2023/08/30 11:36:25;;;;;;;;;;;17.90;99.90;;;;;;7306931;19;9256;-79
2023/08/30 11:38:55;;;;;;;;;;;17.90;99.90;;;;;;7317876;19;9374;-79
2023/08/30 11:41:25;;;;;;;;;;;17.80;99.90;;;;;;7323926;19;9438;-79
2023/08/30 11:43:57;;;;;;;;;;;17.90;99.90;;;;;;7323881;19;9153;-79
2023/08/30 11:46:26;;;;;;;;;;;17.90;99.90;;;;;;7317716;19;9254;-79
2023/08/30 11:48:53;;;;;;;;;;;17.80;99.90;;;;;;7321723;19;9219;-79
2023/08/30 11:51:22;;;;;;;;;;;17.70;99.90;;;;;;7322466;19;10381;-79
2023/08/30 11:53:52;;;;;;;;;;;17.50;99.90;;;;;;7321081;19;9174;-79
2023/08/30 11:56:22;;;;;;;;;;;17.50;99.90;;;;;;7319735;19;9216;-79
2023/08/30 11:58:51;;;;;;;;;;;17.40;99.90;;;;;;7322523;19;9232;-79
2023/08/30 12:01:24;;;;;;;;;;;17.30;99.90;;;;;;7320235;19;9264;-79
2023/08/30 12:03:53;;;;;;;;;;;17.30;99.90;;;;;;7320606;19;9308;-79
2023/08/30 12:06:22;;;;;;;;;;;17.30;99.90;;;;;;7321155;19;9205;-79
2023/08/30 12:08:59;;;;;;;;;;;17.30;99.90;;;;;;7322933;19;9289;-79
2023/08/30 12:11:29;;;;;;;;;;;17.20;99.90;;;;;;7317755;19;9260;-79
2023/08/30 12:14:04;;;;;;;;;;;17.10;99.90;;;;;;7319347;19;9252;-79
2023/08/30 12:16:36;;;;;;;;;;;17.00;99.90;;;;;;7320974;19;9619;-79
2023/08/30 12:19:30;;;;;;;;;;;16.90;99.90;;;;;;7319984;19;9238;-79
2023/08/30 12:22:05;;;;;;;;;;;16.80;99.90;;;;;;7320935;19;10060;-79
2023/08/30 12:24:45;;;;;;;;;;;16.70;99.90;;;;;;7322405;19;9027;-79
2023/08/30 12:27:14;;;;;;;;;;;16.70;99.90;;;;;;7321142;19;9304;-79
2023/08/30 12:29:43;;;;;;;;;;;16.60;99.90;;;;;;7320636;19;9447;-79
2023/08/30 12:32:14;;;;;;;;;;;16.50;99.90;;;;;;7317956;19;9326;-79
2023/08/30 12:34:43;;;;;;;;;;;16.50;99.90;;;;;;7318548;19;9177;-79
2023/08/30 12:37:12;;;;;;;;;;;16.50;99.90;;;;;;7318726;19;9004;-79
2023/08/30 12:39:42;;;;;;;;;;;16.40;99.90;;;;;;7319708;19;9228;-79
2023/08/30 12:42:11;;;;;;;;;;;16.30;99.90;;;;;;7320384;19;9425;-79
2023/08/30 12:44:40;;;;;;;;;;;16.30;99.90;;;;;;7320226;19;9157;-79
2023/08/30 12:47:09;;;;;;;;;;;16.20;99.90;;;;;;7316349;19;9269;-78
2023/08/30 12:49:41;;;;;;;;;;;16.20;99.90;;;;;;7318711;19;9378;-78
2023/08/30 12:52:10;;;;;;;;;;;16.20;99.90;;;;;;7313898;19;9138;-79
2023/08/30 12:54:38;;;;;;;;;;;16.10;99.90;;;;;;7321403;19;9306;-79
2023/08/30 12:57:07;;;;;;;;;;;16.10;99.90;;;;;;7315757;19;9277;-78
2023/08/30 12:59:36;;;;;;;;;;;15.90;99.90;;;;;;7317875;19;9573;-79
2023/08/30 13:02:06;;;;;;;;;;;16.10;99.90;;;;;;7319250;19;10662;-79
2023/08/30 13:04:37;;;;;;;;;;;16.20;99.90;;;;;;7318565;19;9218;-79
2023/08/30 13:07:09;;;;;;;;;;;16.30;99.90;;;;;;7319266;19;9330;-78
2023/08/30 13:09:39;;;;;;;;;;;16.20;99.90;;;;;;7318896;19;9530;-79
2023/08/30 13:12:09;;;;;;;;;;;16.40;99.90;;;;;;7319966;19;9555;-79
2023/08/30 13:14:38;;;;;;;;;;;16.30;99.90;;;;;;7320269;19;9220;-79
2023/08/30 13:17:07;;;;;;;;;;;16.30;99.90;;;;;;7318935;19;9323;-79
2023/08/30 13:19:36;;;;;;;;;;;16.30;99.90;;;;;;7319301;19;9253;-79
2023/08/30 13:22:05;;;;;;;;;;;16.40;99.90;;;;;;7320222;19;9606;-82
2023/08/30 13:24:57;;;;;;;;;;;16.50;99.90;;;;;;7318967;19;9481;-82
2023/08/30 13:27:25;;;;;;;;;;;16.50;99.90;;;;;;7320476;19;9276;-82
2023/08/30 13:29:54;;;;;;;;;;;16.50;99.90;;;;;;7319380;19;9168;-80
2023/08/30 13:32:23;;;;;;;;;;;16.50;99.90;;;;;;7319324;19;9441;-79
2023/08/30 13:34:53;;;;;;;;;;;16.40;99.90;;;;;;7318737;19;11452;-79
2023/08/30 13:37:23;;;;;;;;;;;16.30;99.90;;;;;;7318819;19;9242;-79
2023/08/30 13:39:52;;;;;;;;;;;16.30;99.90;;;;;;7317695;19;9265;-79
2023/08/30 13:42:24;;;;;;;;;;;16.30;99.90;;;;;;7317284;19;9363;-79
2023/08/30 13:44:55;;;;;;;;;;;16.20;99.90;;;;;;7318949;19;9165;-80
2023/08/30 13:47:46;;;;;;;;;;;16.10;99.90;;;;;;7322186;19;9249;-82
2023/08/30 13:50:16;;;;;;;;;;;16.10;99.90;;;;;;7324642;19;9460;-79
2023/08/30 13:52:45;;;;;;;;;;;16.10;99.90;;;;;;7323845;19;9221;-79
2023/08/30 13:55:14;;;;;;;;;;;16.00;99.90;;;;;;7323556;19;9265;-79
2023/08/30 13:57:45;;;;;;;;;;;16.00;99.90;;;;;;7326005;19;9229;-79
2023/08/30 14:00:16;;;;;;;;;;;16.10;99.90;;;;;;7325256;19;9495;-79
2023/08/30 14:02:45;;;;;;;;;;;16.00;99.90;;;;;;7325903;19;10506;-82
2023/08/30 14:05:13;;;;;;;;;;;16.10;99.90;;;;;;7324940;19;9261;-81
2023/08/30 14:07:42;;;;;;;;;;;16.00;99.90;;;;;;7327189;19;9130;-79
2023/08/30 14:10:18;;;;;;;;;;;16.10;99.90;;;;;;7325046;19;9276;-79
2023/08/30 14:13:09;;;;;;;;;;;16.10;99.90;;;;;;7325752;19;9225;-79
2023/08/30 14:15:38;;;;;;;;;;;16.00;99.90;;;;;;7324783;19;9497;-79
2023/08/30 14:18:07;;;;;;;;;;;16.00;99.90;;;;;;7326420;19;9315;-79
2023/08/30 14:20:36;;;;;;;;;;;15.90;99.90;;;;;;7324609;19;10700;-79
2023/08/30 14:23:06;;;;;;;;;;;15.80;99.90;;;;;;7325004;19;9241;-79
2023/08/30 14:25:35;;;;;;;;;;;15.70;99.90;;;;;;7326001;19;9316;-80
2023/08/30 14:28:04;;;;;;;;;;;15.70;99.90;;;;;;7326014;19;9716;-79
2023/08/30 14:30:36;;;;;;;;;;;15.60;99.90;;;;;;7324622;19;9320;-79
2023/08/30 14:33:05;;;;;;;;;;;15.60;99.90;;;;;;7325728;19;9386;-79
2023/08/30 14:35:34;;;;;;;;;;;15.60;99.90;;;;;;7322274;19;9427;-79
2023/08/30 14:38:03;;;;;;;;;;;15.60;99.90;;;;;;7324687;19;10355;-80
2023/08/30 14:40:32;;;;;;;;;;;15.50;99.90;;;;;;7318841;19;9217;-80
2023/08/30 14:43:01;;;;;;;;;;;15.50;99.90;;;;;;7321467;19;9248;-80
2023/08/30 14:45:30;;;;;;;;;;;15.40;99.90;;;;;;7319109;19;9479;-79
2023/08/30 14:48:02;;;;;;;;;;;15.40;99.90;;;;;;7319630;19;9517;-80
2023/08/30 14:50:31;;;;;;;;;;;15.40;99.90;;;;;;7317567;19;9318;-74
2023/08/30 14:53:00;;;;;;;;;;;15.30;99.90;;;;;;7321031;19;9293;-74